sensor_id;sensor_type;location;lat;lon;timestamp;P1;durP1;ratioP1;P2;durP2;ratioP2
37483;SDS011;23337;52.212;9.926;2023-06-19T00:02:21;4.20;;;3.83;;
37483;SDS011;23337;52.212;9.926;2023-06-19T00:04:47;5.00;;;4.57;;
37483;SDS011;23337;52.212;9.926;2023-06-19T00:07:13;4.90;;;4.50;;
37483;SDS011;23337;52.212;9.926;2023-06-19T00:09:39;5.03;;;4.10;;
37483;SDS011;23337;52.212;9.926;2023-06-19T00:12:05;4.73;;;4.17;;
37483;SDS011;23337;52.212;9.926;2023-06-19T00:14:31;5.23;;;4.80;;
37483;SDS011;23337;52.212;9.926;2023-06-19T00:16:58;4.33;;;3.93;;
37483;SDS011;23337;52.212;9.926;2023-06-19T00:19:25;5.17;;;4.50;;
37483;SDS011;23337;52.212;9.926;2023-06-19T00:21:51;4.50;;;4.10;;
37483;SDS011;23337;52.212;9.926;2023-06-19T00:24:22;4.27;;;3.97;;
37483;SDS011;23337;52.212;9.926;2023-06-19T00:26:48;5.37;;;4.17;;
37483;SDS011;23337;52.212;9.926;2023-06-19T00:29:14;4.40;;;4.00;;
37483;SDS011;23337;52.212;9.926;2023-06-19T00:31:39;6.27;;;4.60;;
37483;SDS011;23337;52.212;9.926;2023-06-19T00:34:06;6.10;;;4.17;;
37483;SDS011;23337;52.212;9.926;2023-06-19T00:36:31;7.77;;;5.23;;
37483;SDS011;23337;52.212;9.926;2023-06-19T00:38:57;4.37;;;4.03;;
37483;SDS011;23337;52.212;9.926;2023-06-19T00:41:24;4.50;;;4.10;;
37483;SDS011;23337;52.212;9.926;2023-06-19T00:43:51;4.10;;;3.80;;
37483;SDS011;23337;52.212;9.926;2023-06-19T00:46:19;4.17;;;3.87;;
37483;SDS011;23337;52.212;9.926;2023-06-19T00:48:45;6.20;;;4.87;;
37483;SDS011;23337;52.212;9.926;2023-06-19T00:51:11;4.30;;;3.90;;
37483;SDS011;23337;52.212;9.926;2023-06-19T00:53:36;4.47;;;4.03;;
37483;SDS011;23337;52.212;9.926;2023-06-19T00:56:03;4.03;;;3.73;;
37483;SDS011;23337;52.212;9.926;2023-06-19T00:58:29;5.27;;;3.93;;
37483;SDS011;23337;52.212;9.926;2023-06-19T01:00:55;4.13;;;3.83;;
37483;SDS011;23337;52.212;9.926;2023-06-19T01:03:22;5.47;;;4.47;;
37483;SDS011;23337;52.212;9.926;2023-06-19T01:05:48;4.47;;;4.17;;
37483;SDS011;23337;52.212;9.926;2023-06-19T01:10:47;4.50;;;4.10;;
37483;SDS011;23337;52.212;9.926;2023-06-19T01:13:27;4.80;;;4.30;;
37483;SDS011;23337;52.212;9.926;2023-06-19T01:15:54;4.60;;;4.20;;
37483;SDS011;23337;52.212;9.926;2023-06-19T01:18:20;4.10;;;3.67;;
37483;SDS011;23337;52.212;9.926;2023-06-19T01:20:47;4.67;;;4.27;;
37483;SDS011;23337;52.212;9.926;2023-06-19T01:23:13;3.93;;;3.63;;
37483;SDS011;23337;52.212;9.926;2023-06-19T01:25:39;4.73;;;3.97;;
37483;SDS011;23337;52.212;9.926;2023-06-19T01:28:05;4.70;;;4.30;;
37483;SDS011;23337;52.212;9.926;2023-06-19T01:30:34;4.57;;;4.07;;
37483;SDS011;23337;52.212;9.926;2023-06-19T01:33:11;4.53;;;4.13;;
37483;SDS011;23337;52.212;9.926;2023-06-19T01:35:38;5.47;;;4.80;;
37483;SDS011;23337;52.212;9.926;2023-06-19T01:38:05;5.30;;;4.90;;
37483;SDS011;23337;52.212;9.926;2023-06-19T01:40:32;6.17;;;5.67;;
37483;SDS011;23337;52.212;9.926;2023-06-19T01:42:58;6.07;;;4.87;;
37483;SDS011;23337;52.212;9.926;2023-06-19T01:45:29;5.87;;;5.27;;
37483;SDS011;23337;52.212;9.926;2023-06-19T01:47:56;5.07;;;4.67;;
37483;SDS011;23337;52.212;9.926;2023-06-19T01:50:22;5.53;;;5.13;;
37483;SDS011;23337;52.212;9.926;2023-06-19T01:52:48;5.97;;;5.40;;
37483;SDS011;23337;52.212;9.926;2023-06-19T01:55:14;8.07;;;5.87;;
37483;SDS011;23337;52.212;9.926;2023-06-19T01:57:40;5.97;;;5.10;;
37483;SDS011;23337;52.212;9.926;2023-06-19T02:00:06;5.43;;;4.97;;
37483;SDS011;23337;52.212;9.926;2023-06-19T02:02:33;5.97;;;5.47;;
37483;SDS011;23337;52.212;9.926;2023-06-19T02:04:59;5.13;;;4.73;;
37483;SDS011;23337;52.212;9.926;2023-06-19T02:07:25;5.47;;;4.90;;
37483;SDS011;23337;52.212;9.926;2023-06-19T02:09:50;5.20;;;4.70;;
37483;SDS011;23337;52.212;9.926;2023-06-19T02:12:16;5.93;;;5.43;;
37483;SDS011;23337;52.212;9.926;2023-06-19T02:14:43;5.50;;;5.10;;
37483;SDS011;23337;52.212;9.926;2023-06-19T02:17:08;5.90;;;5.30;;
37483;SDS011;23337;52.212;9.926;2023-06-19T02:19:34;6.97;;;5.53;;
37483;SDS011;23337;52.212;9.926;2023-06-19T02:22:00;5.07;;;4.67;;
37483;SDS011;23337;52.212;9.926;2023-06-19T02:24:26;6.00;;;5.50;;
37483;SDS011;23337;52.212;9.926;2023-06-19T02:26:52;5.60;;;5.10;;
37483;SDS011;23337;52.212;9.926;2023-06-19T02:29:18;5.73;;;5.10;;
37483;SDS011;23337;52.212;9.926;2023-06-19T02:31:45;6.13;;;5.57;;
37483;SDS011;23337;52.212;9.926;2023-06-19T02:34:11;7.20;;;5.63;;
37483;SDS011;23337;52.212;9.926;2023-06-19T02:36:37;5.67;;;5.27;;
37483;SDS011;23337;52.212;9.926;2023-06-19T02:39:06;5.33;;;4.93;;
37483;SDS011;23337;52.212;9.926;2023-06-19T02:41:32;5.30;;;4.80;;
37483;SDS011;23337;52.212;9.926;2023-06-19T02:43:58;5.97;;;5.40;;
37483;SDS011;23337;52.212;9.926;2023-06-19T02:46:24;5.47;;;5.00;;
37483;SDS011;23337;52.212;9.926;2023-06-19T02:48:50;5.20;;;4.70;;
37483;SDS011;23337;52.212;9.926;2023-06-19T02:51:16;4.93;;;4.53;;
37483;SDS011;23337;52.212;9.926;2023-06-19T02:53:42;4.77;;;4.37;;
37483;SDS011;23337;52.212;9.926;2023-06-19T02:56:09;4.80;;;4.30;;
37483;SDS011;23337;52.212;9.926;2023-06-19T02:58:35;5.00;;;4.53;;
37483;SDS011;23337;52.212;9.926;2023-06-19T03:01:02;4.57;;;4.17;;
37483;SDS011;23337;52.212;9.926;2023-06-19T03:03:28;5.70;;;5.20;;
37483;SDS011;23337;52.212;9.926;2023-06-19T03:05:55;5.73;;;5.17;;
37483;SDS011;23337;52.212;9.926;2023-06-19T03:08:21;5.07;;;4.57;;
37483;SDS011;23337;52.212;9.926;2023-06-19T03:10:47;5.70;;;5.10;;
37483;SDS011;23337;52.212;9.926;2023-06-19T03:13:13;5.40;;;4.90;;
37483;SDS011;23337;52.212;9.926;2023-06-19T03:15:39;5.00;;;4.50;;
37483;SDS011;23337;52.212;9.926;2023-06-19T03:18:05;6.03;;;5.30;;
37483;SDS011;23337;52.212;9.926;2023-06-19T03:20:33;4.53;;;4.20;;
37483;SDS011;23337;52.212;9.926;2023-06-19T03:22:59;5.20;;;4.70;;
37483;SDS011;23337;52.212;9.926;2023-06-19T03:25:25;4.70;;;4.30;;
37483;SDS011;23337;52.212;9.926;2023-06-19T03:27:51;5.27;;;4.87;;
37483;SDS011;23337;52.212;9.926;2023-06-19T03:30:17;4.77;;;4.37;;
37483;SDS011;23337;52.212;9.926;2023-06-19T03:32:43;5.20;;;4.70;;
37483;SDS011;23337;52.212;9.926;2023-06-19T03:35:09;7.03;;;4.60;;
37483;SDS011;23337;52.212;9.926;2023-06-19T03:37:36;5.10;;;4.70;;
37483;SDS011;23337;52.212;9.926;2023-06-19T03:40:02;5.20;;;4.80;;
37483;SDS011;23337;52.212;9.926;2023-06-19T03:42:31;4.97;;;4.57;;
37483;SDS011;23337;52.212;9.926;2023-06-19T03:44:57;6.03;;;4.77;;
37483;SDS011;23337;52.212;9.926;2023-06-19T03:47:23;5.90;;;5.47;;
37483;SDS011;23337;52.212;9.926;2023-06-19T03:49:49;5.20;;;4.80;;
37483;SDS011;23337;52.212;9.926;2023-06-19T03:52:15;5.27;;;4.60;;
37483;SDS011;23337;52.212;9.926;2023-06-19T03:54:40;6.23;;;5.70;;
37483;SDS011;23337;52.212;9.926;2023-06-19T03:57:07;5.10;;;4.67;;
37483;SDS011;23337;52.212;9.926;2023-06-19T03:59:33;5.80;;;5.00;;
37483;SDS011;23337;52.212;9.926;2023-06-19T04:01:59;5.83;;;5.23;;
37483;SDS011;23337;52.212;9.926;2023-06-19T04:04:25;4.87;;;4.40;;
37483;SDS011;23337;52.212;9.926;2023-06-19T04:06:51;4.90;;;4.50;;
37483;SDS011;23337;52.212;9.926;2023-06-19T04:09:17;6.43;;;4.57;;
37483;SDS011;23337;52.212;9.926;2023-06-19T04:11:43;5.60;;;5.10;;
37483;SDS011;23337;52.212;9.926;2023-06-19T04:14:09;6.67;;;5.33;;
37483;SDS011;23337;52.212;9.926;2023-06-19T04:16:35;5.17;;;4.67;;
37483;SDS011;23337;52.212;9.926;2023-06-19T04:19:01;6.03;;;4.53;;
37483;SDS011;23337;52.212;9.926;2023-06-19T04:21:27;6.30;;;5.13;;
37483;SDS011;23337;52.212;9.926;2023-06-19T04:23:53;6.50;;;5.90;;
37483;SDS011;23337;52.212;9.926;2023-06-19T04:26:19;5.83;;;5.33;;
37483;SDS011;23337;52.212;9.926;2023-06-19T04:28:46;6.93;;;6.20;;
37483;SDS011;23337;52.212;9.926;2023-06-19T04:31:12;7.37;;;5.77;;
37483;SDS011;23337;52.212;9.926;2023-06-19T04:33:44;6.30;;;5.80;;
37483;SDS011;23337;52.212;9.926;2023-06-19T04:36:10;6.17;;;5.57;;
37483;SDS011;23337;52.212;9.926;2023-06-19T04:38:36;5.60;;;5.17;;
37483;SDS011;23337;52.212;9.926;2023-06-19T04:41:02;6.07;;;5.47;;
37483;SDS011;23337;52.212;9.926;2023-06-19T04:43:28;5.70;;;5.20;;
37483;SDS011;23337;52.212;9.926;2023-06-19T04:45:54;5.90;;;5.40;;
37483;SDS011;23337;52.212;9.926;2023-06-19T04:48:20;5.60;;;5.10;;
37483;SDS011;23337;52.212;9.926;2023-06-19T04:50:51;6.07;;;5.57;;
37483;SDS011;23337;52.212;9.926;2023-06-19T04:53:17;5.67;;;5.20;;
37483;SDS011;23337;52.212;9.926;2023-06-19T04:55:43;5.67;;;5.27;;
37483;SDS011;23337;52.212;9.926;2023-06-19T04:58:10;6.60;;;5.83;;
37483;SDS011;23337;52.212;9.926;2023-06-19T05:00:35;6.00;;;5.50;;
37483;SDS011;23337;52.212;9.926;2023-06-19T05:03:01;6.10;;;5.60;;
37483;SDS011;23337;52.212;9.926;2023-06-19T05:05:27;6.10;;;5.60;;
37483;SDS011;23337;52.212;9.926;2023-06-19T05:07:53;5.97;;;5.47;;
37483;SDS011;23337;52.212;9.926;2023-06-19T05:10:19;5.53;;;5.10;;
37483;SDS011;23337;52.212;9.926;2023-06-19T05:12:46;6.17;;;5.57;;
37483;SDS011;23337;52.212;9.926;2023-06-19T05:15:11;6.47;;;5.63;;
37483;SDS011;23337;52.212;9.926;2023-06-19T05:17:37;6.50;;;5.90;;
37483;SDS011;23337;52.212;9.926;2023-06-19T05:20:04;6.23;;;5.63;;
37483;SDS011;23337;52.212;9.926;2023-06-19T05:22:32;6.23;;;5.63;;
37483;SDS011;23337;52.212;9.926;2023-06-19T05:24:59;5.90;;;5.40;;
37483;SDS011;23337;52.212;9.926;2023-06-19T05:27:25;6.77;;;6.17;;
37483;SDS011;23337;52.212;9.926;2023-06-19T05:29:51;6.50;;;5.93;;
37483;SDS011;23337;52.212;9.926;2023-06-19T05:32:17;6.33;;;5.83;;
37483;SDS011;23337;52.212;9.926;2023-06-19T05:34:43;6.40;;;5.90;;
37483;SDS011;23337;52.212;9.926;2023-06-19T05:37:09;6.70;;;6.10;;
37483;SDS011;23337;52.212;9.926;2023-06-19T05:39:35;6.23;;;5.20;;
37483;SDS011;23337;52.212;9.926;2023-06-19T05:42:01;6.27;;;5.63;;
37483;SDS011;23337;52.212;9.926;2023-06-19T05:44:27;6.23;;;5.73;;
37483;SDS011;23337;52.212;9.926;2023-06-19T05:46:53;6.83;;;6.13;;
37483;SDS011;23337;52.212;9.926;2023-06-19T05:49:19;6.70;;;5.57;;
37483;SDS011;23337;52.212;9.926;2023-06-19T05:51:45;6.00;;;5.50;;
37483;SDS011;23337;52.212;9.926;2023-06-19T05:54:10;6.17;;;5.57;;
37483;SDS011;23337;52.212;9.926;2023-06-19T05:56:36;6.97;;;6.07;;
37483;SDS011;23337;52.212;9.926;2023-06-19T05:59:02;6.47;;;5.97;;
37483;SDS011;23337;52.212;9.926;2023-06-19T06:01:29;9.50;;;6.97;;
37483;SDS011;23337;52.212;9.926;2023-06-19T06:03:55;6.10;;;5.60;;
37483;SDS011;23337;52.212;9.926;2023-06-19T06:06:22;6.47;;;5.87;;
37483;SDS011;23337;52.212;9.926;2023-06-19T06:08:48;7.23;;;5.80;;
37483;SDS011;23337;52.212;9.926;2023-06-19T06:11:14;7.40;;;6.67;;
37483;SDS011;23337;52.212;9.926;2023-06-19T06:13:40;6.33;;;5.73;;
37483;SDS011;23337;52.212;9.926;2023-06-19T06:16:06;6.80;;;6.10;;
37483;SDS011;23337;52.212;9.926;2023-06-19T06:18:32;6.77;;;6.17;;
37483;SDS011;23337;52.212;9.926;2023-06-19T06:20:58;6.17;;;5.57;;
37483;SDS011;23337;52.212;9.926;2023-06-19T06:23:24;6.60;;;6.00;;
37483;SDS011;23337;52.212;9.926;2023-06-19T06:25:50;6.77;;;6.17;;
37483;SDS011;23337;52.212;9.926;2023-06-19T06:28:16;6.50;;;5.87;;
37483;SDS011;23337;52.212;9.926;2023-06-19T06:30:42;6.43;;;5.83;;
37483;SDS011;23337;52.212;9.926;2023-06-19T06:33:08;7.17;;;6.47;;
37483;SDS011;23337;52.212;9.926;2023-06-19T06:35:34;9.23;;;5.97;;
37483;SDS011;23337;52.212;9.926;2023-06-19T06:38:01;6.27;;;5.77;;
37483;SDS011;23337;52.212;9.926;2023-06-19T06:40:27;6.50;;;5.90;;
37483;SDS011;23337;52.212;9.926;2023-06-19T06:42:53;4.87;;;4.47;;
37483;SDS011;23337;52.212;9.926;2023-06-19T06:45:19;6.73;;;6.03;;
37483;SDS011;23337;52.212;9.926;2023-06-19T06:47:45;5.50;;;5.00;;
37483;SDS011;23337;52.212;9.926;2023-06-19T06:50:11;5.90;;;5.37;;
37483;SDS011;23337;52.212;9.926;2023-06-19T06:52:37;6.63;;;5.83;;
37483;SDS011;23337;52.212;9.926;2023-06-19T06:55:03;5.73;;;5.20;;
37483;SDS011;23337;52.212;9.926;2023-06-19T06:57:30;6.30;;;5.63;;
37483;SDS011;23337;52.212;9.926;2023-06-19T06:59:56;6.43;;;5.87;;
37483;SDS011;23337;52.212;9.926;2023-06-19T07:02:21;6.40;;;5.80;;
37483;SDS011;23337;52.212;9.926;2023-06-19T07:04:47;7.17;;;6.10;;
37483;SDS011;23337;52.212;9.926;2023-06-19T07:07:14;5.93;;;5.37;;
37483;SDS011;23337;52.212;9.926;2023-06-19T07:09:40;6.47;;;5.87;;
37483;SDS011;23337;52.212;9.926;2023-06-19T07:12:06;5.73;;;5.33;;
37483;SDS011;23337;52.212;9.926;2023-06-19T07:14:32;6.90;;;6.17;;
37483;SDS011;23337;52.212;9.926;2023-06-19T07:16:58;6.73;;;6.07;;
37483;SDS011;23337;52.212;9.926;2023-06-19T07:19:24;6.80;;;6.13;;
37483;SDS011;23337;52.212;9.926;2023-06-19T07:21:50;6.87;;;6.27;;
37483;SDS011;23337;52.212;9.926;2023-06-19T07:24:16;6.37;;;5.87;;
37483;SDS011;23337;52.212;9.926;2023-06-19T07:26:42;7.13;;;6.47;;
37483;SDS011;23337;52.212;9.926;2023-06-19T07:29:08;8.23;;;7.53;;
37483;SDS011;23337;52.212;9.926;2023-06-19T07:31:34;9.13;;;6.43;;
37483;SDS011;23337;52.212;9.926;2023-06-19T07:34:00;9.03;;;7.57;;
37483;SDS011;23337;52.212;9.926;2023-06-19T07:36:27;11.93;;;7.97;;
37483;SDS011;23337;52.212;9.926;2023-06-19T07:38:54;8.13;;;7.37;;
37483;SDS011;23337;52.212;9.926;2023-06-19T07:41:20;7.90;;;7.07;;
37483;SDS011;23337;52.212;9.926;2023-06-19T07:43:46;8.73;;;6.73;;
37483;SDS011;23337;52.212;9.926;2023-06-19T07:46:12;10.07;;;7.77;;
37483;SDS011;23337;52.212;9.926;2023-06-19T07:48:40;9.60;;;7.07;;
37483;SDS011;23337;52.212;9.926;2023-06-19T07:51:06;8.73;;;7.43;;
37483;SDS011;23337;52.212;9.926;2023-06-19T07:53:32;9.13;;;6.67;;
37483;SDS011;23337;52.212;9.926;2023-06-19T07:55:57;9.87;;;7.43;;
37483;SDS011;23337;52.212;9.926;2023-06-19T07:58:23;7.57;;;6.77;;
37483;SDS011;23337;52.212;9.926;2023-06-19T08:00:49;6.90;;;6.33;;
37483;SDS011;23337;52.212;9.926;2023-06-19T08:03:15;8.27;;;6.87;;
37483;SDS011;23337;52.212;9.926;2023-06-19T08:05:41;7.73;;;7.03;;
37483;SDS011;23337;52.212;9.926;2023-06-19T08:08:07;7.73;;;7.03;;
37483;SDS011;23337;52.212;9.926;2023-06-19T08:10:33;7.57;;;6.97;;
37483;SDS011;23337;52.212;9.926;2023-06-19T08:12:59;8.40;;;7.67;;
37483;SDS011;23337;52.212;9.926;2023-06-19T08:15:25;8.43;;;7.13;;
37483;SDS011;23337;52.212;9.926;2023-06-19T08:17:51;7.87;;;7.17;;
37483;SDS011;23337;52.212;9.926;2023-06-19T08:20:17;7.70;;;7.10;;
37483;SDS011;23337;52.212;9.926;2023-06-19T08:22:44;7.47;;;6.80;;
37483;SDS011;23337;52.212;9.926;2023-06-19T08:25:10;7.60;;;6.90;;
37483;SDS011;23337;52.212;9.926;2023-06-19T08:27:37;7.23;;;6.53;;
37483;SDS011;23337;52.212;9.926;2023-06-19T08:30:03;7.20;;;6.50;;
37483;SDS011;23337;52.212;9.926;2023-06-19T08:32:29;6.70;;;5.97;;
37483;SDS011;23337;52.212;9.926;2023-06-19T08:34:56;6.53;;;5.97;;
37483;SDS011;23337;52.212;9.926;2023-06-19T08:37:22;6.40;;;5.90;;
37483;SDS011;23337;52.212;9.926;2023-06-19T08:39:48;8.63;;;7.03;;
37483;SDS011;23337;52.212;9.926;2023-06-19T08:42:14;7.10;;;6.50;;
37483;SDS011;23337;52.212;9.926;2023-06-19T08:44:40;7.07;;;6.47;;
37483;SDS011;23337;52.212;9.926;2023-06-19T08:47:06;7.97;;;7.17;;
37483;SDS011;23337;52.212;9.926;2023-06-19T08:49:33;6.73;;;6.23;;
37483;SDS011;23337;52.212;9.926;2023-06-19T08:51:59;7.17;;;6.57;;
37483;SDS011;23337;52.212;9.926;2023-06-19T08:54:26;7.23;;;6.53;;
37483;SDS011;23337;52.212;9.926;2023-06-19T08:56:52;6.90;;;6.20;;
37483;SDS011;23337;52.212;9.926;2023-06-19T08:59:19;8.00;;;7.30;;
37483;SDS011;23337;52.212;9.926;2023-06-19T09:01:49;7.23;;;6.53;;
37483;SDS011;23337;52.212;9.926;2023-06-19T09:04:17;7.20;;;6.50;;
37483;SDS011;23337;52.212;9.926;2023-06-19T09:06:47;7.40;;;6.77;;
37483;SDS011;23337;52.212;9.926;2023-06-19T09:09:13;7.60;;;6.90;;
37483;SDS011;23337;52.212;9.926;2023-06-19T09:11:39;7.37;;;6.70;;
37483;SDS011;23337;52.212;9.926;2023-06-19T09:14:08;7.47;;;6.77;;
37483;SDS011;23337;52.212;9.926;2023-06-19T09:16:39;6.57;;;6.07;;
37483;SDS011;23337;52.212;9.926;2023-06-19T09:19:05;7.30;;;6.60;;
37483;SDS011;23337;52.212;9.926;2023-06-19T09:21:31;6.87;;;6.07;;
37483;SDS011;23337;52.212;9.926;2023-06-19T09:24:07;7.03;;;6.33;;
37483;SDS011;23337;52.212;9.926;2023-06-19T09:26:34;7.20;;;6.70;;
37483;SDS011;23337;52.212;9.926;2023-06-19T09:29:10;6.03;;;5.53;;
37483;SDS011;23337;52.212;9.926;2023-06-19T09:31:36;5.83;;;5.17;;
37483;SDS011;23337;52.212;9.926;2023-06-19T09:34:03;5.07;;;4.67;;
37483;SDS011;23337;52.212;9.926;2023-06-19T09:36:30;6.63;;;6.13;;
37483;SDS011;23337;52.212;9.926;2023-06-19T09:38:57;5.67;;;5.17;;
37483;SDS011;23337;52.212;9.926;2023-06-19T09:41:25;6.10;;;5.53;;
37483;SDS011;23337;52.212;9.926;2023-06-19T09:43:51;5.90;;;5.40;;
37483;SDS011;23337;52.212;9.926;2023-06-19T09:46:22;6.20;;;5.77;;
37483;SDS011;23337;52.212;9.926;2023-06-19T09:48:50;7.40;;;5.93;;
37483;SDS011;23337;52.212;9.926;2023-06-19T09:51:20;7.80;;;7.00;;
37483;SDS011;23337;52.212;9.926;2023-06-19T09:53:47;6.30;;;5.87;;
37483;SDS011;23337;52.212;9.926;2023-06-19T09:56:14;6.07;;;5.47;;
37483;SDS011;23337;52.212;9.926;2023-06-19T09:58:43;6.20;;;5.70;;
37483;SDS011;23337;52.212;9.926;2023-06-19T10:01:10;6.13;;;5.63;;
37483;SDS011;23337;52.212;9.926;2023-06-19T10:03:37;6.17;;;5.13;;
37483;SDS011;23337;52.212;9.926;2023-06-19T10:06:05;6.33;;;5.83;;
37483;SDS011;23337;52.212;9.926;2023-06-19T10:08:32;6.07;;;5.67;;
37483;SDS011;23337;52.212;9.926;2023-06-19T10:11:03;5.90;;;5.40;;
37483;SDS011;23337;52.212;9.926;2023-06-19T10:13:33;6.13;;;5.63;;
37483;SDS011;23337;52.212;9.926;2023-06-19T10:16:00;5.73;;;5.33;;
37483;SDS011;23337;52.212;9.926;2023-06-19T10:18:26;5.97;;;5.40;;
37483;SDS011;23337;52.212;9.926;2023-06-19T10:20:54;6.37;;;5.77;;
37483;SDS011;23337;52.212;9.926;2023-06-19T10:23:21;6.07;;;5.67;;
37483;SDS011;23337;52.212;9.926;2023-06-19T10:25:48;6.70;;;5.93;;
37483;SDS011;23337;52.212;9.926;2023-06-19T10:30:44;6.07;;;5.57;;
37483;SDS011;23337;52.212;9.926;2023-06-19T10:33:10;7.07;;;6.37;;
37483;SDS011;23337;52.212;9.926;2023-06-19T10:35:40;6.30;;;5.80;;
37483;SDS011;23337;52.212;9.926;2023-06-19T10:38:07;7.30;;;6.60;;
37483;SDS011;23337;52.212;9.926;2023-06-19T10:43:00;6.80;;;6.30;;
37483;SDS011;23337;52.212;9.926;2023-06-19T10:45:26;6.40;;;5.90;;
37483;SDS011;23337;52.212;9.926;2023-06-19T10:47:53;6.57;;;6.03;;
37483;SDS011;23337;52.212;9.926;2023-06-19T10:50:19;6.80;;;6.20;;
37483;SDS011;23337;52.212;9.926;2023-06-19T10:52:45;7.53;;;6.37;;
37483;SDS011;23337;52.212;9.926;2023-06-19T10:55:13;6.97;;;6.43;;
37483;SDS011;23337;52.212;9.926;2023-06-19T10:57:45;6.93;;;6.33;;
37483;SDS011;23337;52.212;9.926;2023-06-19T11:00:11;6.77;;;6.13;;
37483;SDS011;23337;52.212;9.926;2023-06-19T11:02:38;7.23;;;6.53;;
37483;SDS011;23337;52.212;9.926;2023-06-19T11:05:06;6.83;;;6.23;;
37483;SDS011;23337;52.212;9.926;2023-06-19T11:07:32;7.13;;;6.47;;
37483;SDS011;23337;52.212;9.926;2023-06-19T11:09:58;6.83;;;6.23;;
37483;SDS011;23337;52.212;9.926;2023-06-19T11:12:24;6.40;;;5.90;;
37483;SDS011;23337;52.212;9.926;2023-06-19T11:14:50;6.13;;;5.63;;
37483;SDS011;23337;52.212;9.926;2023-06-19T11:17:16;5.90;;;5.37;;
37483;SDS011;23337;52.212;9.926;2023-06-19T11:19:46;5.73;;;5.27;;
37483;SDS011;23337;52.212;9.926;2023-06-19T11:22:12;5.87;;;5.30;;
37483;SDS011;23337;52.212;9.926;2023-06-19T11:24:47;5.73;;;4.43;;
37483;SDS011;23337;52.212;9.926;2023-06-19T11:27:21;5.93;;;5.10;;
37483;SDS011;23337;52.212;9.926;2023-06-19T11:29:56;4.97;;;4.57;;
37483;SDS011;23337;52.212;9.926;2023-06-19T11:32:32;5.13;;;4.47;;
37483;SDS011;23337;52.212;9.926;2023-06-19T11:35:04;5.70;;;4.40;;
37483;SDS011;23337;52.212;9.926;2023-06-19T11:37:32;4.30;;;4.00;;
37483;SDS011;23337;52.212;9.926;2023-06-19T11:39:59;3.90;;;3.60;;
37483;SDS011;23337;52.212;9.926;2023-06-19T11:42:25;4.00;;;3.70;;
37483;SDS011;23337;52.212;9.926;2023-06-19T11:44:55;6.53;;;4.10;;
37483;SDS011;23337;52.212;9.926;2023-06-19T11:47:21;4.00;;;3.60;;
37483;SDS011;23337;52.212;9.926;2023-06-19T11:49:47;4.00;;;3.70;;
37483;SDS011;23337;52.212;9.926;2023-06-19T11:52:14;3.90;;;3.60;;
37483;SDS011;23337;52.212;9.926;2023-06-19T11:54:40;4.63;;;4.23;;
37483;SDS011;23337;52.212;9.926;2023-06-19T11:57:06;6.93;;;4.20;;
37483;SDS011;23337;52.212;9.926;2023-06-19T11:59:32;4.43;;;4.07;;
37483;SDS011;23337;52.212;9.926;2023-06-19T12:01:58;4.47;;;4.17;;
37483;SDS011;23337;52.212;9.926;2023-06-19T12:04:24;4.50;;;4.20;;
37483;SDS011;23337;52.212;9.926;2023-06-19T12:06:51;4.63;;;4.33;;
37483;SDS011;23337;52.212;9.926;2023-06-19T12:09:18;7.17;;;4.70;;
37483;SDS011;23337;52.212;9.926;2023-06-19T12:11:43;5.40;;;4.53;;
37483;SDS011;23337;52.212;9.926;2023-06-19T12:14:09;4.60;;;4.20;;
37483;SDS011;23337;52.212;9.926;2023-06-19T12:16:35;3.47;;;3.17;;
37483;SDS011;23337;52.212;9.926;2023-06-19T12:19:01;3.80;;;3.20;;
37483;SDS011;23337;52.212;9.926;2023-06-19T12:21:27;3.37;;;3.13;;
37483;SDS011;23337;52.212;9.926;2023-06-19T12:23:53;3.50;;;3.20;;
37483;SDS011;23337;52.212;9.926;2023-06-19T12:26:20;4.23;;;3.93;;
37483;SDS011;23337;52.212;9.926;2023-06-19T12:28:46;3.43;;;3.13;;
37483;SDS011;23337;52.212;9.926;2023-06-19T12:31:12;3.17;;;2.77;;
37483;SDS011;23337;52.212;9.926;2023-06-19T12:33:38;3.00;;;2.77;;
37483;SDS011;23337;52.212;9.926;2023-06-19T12:36:08;3.87;;;2.63;;
37483;SDS011;23337;52.212;9.926;2023-06-19T12:38:34;3.00;;;2.80;;
37483;SDS011;23337;52.212;9.926;2023-06-19T12:41:02;3.87;;;2.70;;
37483;SDS011;23337;52.212;9.926;2023-06-19T12:43:28;3.23;;;2.87;;
37483;SDS011;23337;52.212;9.926;2023-06-19T12:45:56;4.40;;;3.20;;
37483;SDS011;23337;52.212;9.926;2023-06-19T12:48:24;3.57;;;3.27;;
37483;SDS011;23337;52.212;9.926;2023-06-19T12:50:50;2.57;;;2.37;;
37483;SDS011;23337;52.212;9.926;2023-06-19T12:53:16;4.20;;;2.63;;
37483;SDS011;23337;52.212;9.926;2023-06-19T12:55:42;3.57;;;3.20;;
37483;SDS011;23337;52.212;9.926;2023-06-19T12:58:08;2.47;;;2.30;;
37483;SDS011;23337;52.212;9.926;2023-06-19T13:00:34;2.77;;;2.57;;
37483;SDS011;23337;52.212;9.926;2023-06-19T13:03:00;3.30;;;2.60;;
37483;SDS011;23337;52.212;9.926;2023-06-19T13:05:26;2.72;;;2.53;;
37483;SDS011;23337;52.212;9.926;2023-06-19T13:07:52;3.92;;;2.53;;
37483;SDS011;23337;52.212;9.926;2023-06-19T13:10:18;3.17;;;2.88;;
37483;SDS011;23337;52.212;9.926;2023-06-19T13:12:44;2.67;;;2.43;;
37483;SDS011;23337;52.212;9.926;2023-06-19T13:15:10;2.88;;;2.67;;
37483;SDS011;23337;52.212;9.926;2023-06-19T13:17:36;3.55;;;2.35;;
37483;SDS011;23337;52.212;9.926;2023-06-19T13:20:02;2.35;;;2.22;;
37483;SDS011;23337;52.212;9.926;2023-06-19T13:22:30;3.25;;;2.67;;
37483;SDS011;23337;52.212;9.926;2023-06-19T13:24:56;2.70;;;2.35;;
37483;SDS011;23337;52.212;9.926;2023-06-19T13:27:22;3.13;;;2.30;;
37483;SDS011;23337;52.212;9.926;2023-06-19T13:29:48;2.95;;;2.53;;
37483;SDS011;23337;52.212;9.926;2023-06-19T13:32:14;2.38;;;2.08;;
37483;SDS011;23337;52.212;9.926;2023-06-19T13:34:39;2.78;;;2.58;;
37483;SDS011;23337;52.212;9.926;2023-06-19T13:37:05;2.67;;;2.42;;
37483;SDS011;23337;52.212;9.926;2023-06-19T13:39:31;4.53;;;2.70;;
37483;SDS011;23337;52.212;9.926;2023-06-19T13:41:57;2.80;;;2.60;;
37483;SDS011;23337;52.212;9.926;2023-06-19T13:44:26;3.17;;;2.70;;
37483;SDS011;23337;52.212;9.926;2023-06-19T13:46:52;2.78;;;2.58;;
37483;SDS011;23337;52.212;9.926;2023-06-19T13:49:19;2.90;;;2.70;;
37483;SDS011;23337;52.212;9.926;2023-06-19T13:51:45;2.80;;;2.60;;
37483;SDS011;23337;52.212;9.926;2023-06-19T13:54:11;2.70;;;2.50;;
37483;SDS011;23337;52.212;9.926;2023-06-19T13:56:38;3.70;;;3.40;;
37483;SDS011;23337;52.212;9.926;2023-06-19T13:59:04;3.63;;;3.13;;
37483;SDS011;23337;52.212;9.926;2023-06-19T14:01:30;3.23;;;2.93;;
37483;SDS011;23337;52.212;9.926;2023-06-19T14:03:57;3.58;;;3.10;;
37483;SDS011;23337;52.212;9.926;2023-06-19T14:06:23;3.10;;;2.90;;
37483;SDS011;23337;52.212;9.926;2023-06-19T14:08:49;4.60;;;2.85;;
37483;SDS011;23337;52.212;9.926;2023-06-19T14:11:15;3.35;;;3.15;;
37483;SDS011;23337;52.212;9.926;2023-06-19T14:13:41;3.70;;;3.40;;
37483;SDS011;23337;52.212;9.926;2023-06-19T14:16:07;4.40;;;4.00;;
37483;SDS011;23337;52.212;9.926;2023-06-19T14:18:33;3.70;;;3.20;;
37483;SDS011;23337;52.212;9.926;2023-06-19T14:21:01;3.72;;;3.42;;
37483;SDS011;23337;52.212;9.926;2023-06-19T14:23:27;3.47;;;3.17;;
37483;SDS011;23337;52.212;9.926;2023-06-19T14:25:54;3.23;;;2.90;;
37483;SDS011;23337;52.212;9.926;2023-06-19T14:28:20;3.90;;;3.60;;
37483;SDS011;23337;52.212;9.926;2023-06-19T14:30:46;3.90;;;3.60;;
37483;SDS011;23337;52.212;9.926;2023-06-19T14:33:12;3.33;;;3.00;;
37483;SDS011;23337;52.212;9.926;2023-06-19T14:35:43;3.30;;;3.10;;
37483;SDS011;23337;52.212;9.926;2023-06-19T14:38:11;3.38;;;3.00;;
37483;SDS011;23337;52.212;9.926;2023-06-19T14:40:37;3.53;;;3.30;;
37483;SDS011;23337;52.212;9.926;2023-06-19T14:43:03;3.67;;;3.15;;
37483;SDS011;23337;52.212;9.926;2023-06-19T14:45:30;3.70;;;2.92;;
37483;SDS011;23337;52.212;9.926;2023-06-19T14:47:56;4.38;;;3.13;;
37483;SDS011;23337;52.212;9.926;2023-06-19T14:50:22;3.60;;;3.40;;
37483;SDS011;23337;52.212;9.926;2023-06-19T14:52:48;4.13;;;3.63;;